Time;durP1;ratioP1;P1;durP2;ratioP2;P2;SDS_P1;SDS_P2;PMS_P1;PMS_P2;Temp;Humidity;BMP_temperature;BMP_pressure;BME280_temperature;BME280_humidity;BME280_pressure;Samples;Min_cycle;Max_cycle;Signal;HPM_P1;HPM_P2
2022/11/11 00:00:50;;;;;;;28.95;11.13;;;2.50;99.90;;;;;;5073736;28;20029;-50
2022/11/11 00:03:16;;;;;;;54.13;10.05;;;2.50;99.90;;;;;;5074038;28;20032;-53
2022/11/11 00:05:41;;;;;;;70.13;10.27;;;2.50;99.90;;;;;;5089373;28;20025;-51
2022/11/11 00:08:07;;;;;;;24.77;10.73;;;2.50;99.90;;;;;;5073812;28;20039;-49
2022/11/11 00:10:33;;;;;;;41.28;10.10;;;2.50;99.90;;;;;;5073760;28;20035;-53
2022/11/11 00:13:00;;;;;;;45.10;11.23;;;2.50;99.90;;;;;;5089244;28;20471;-50
2022/11/11 00:15:26;;;;;;;42.78;10.48;;;2.60;99.90;;;;;;5072322;28;20036;-49
2022/11/11 00:26:11;;;;;;;98.47;12.27;;;2.60;99.90;;;;;;5073824;28;20096;-52
2022/11/11 00:28:37;;;;;;;105.78;11.50;;;2.60;99.90;;;;;;5072976;28;20020;-53
2022/11/11 00:31:08;;;;;;;38.33;10.75;;;2.60;99.90;;;;;;5073132;28;20177;-51
2022/11/11 00:33:34;;;;;;;90.63;13.82;;;2.50;99.90;;;;;;5071451;28;20025;-50
2022/11/11 00:36:00;;;;;;;95.75;12.88;;;2.50;99.90;;;;;;5073280;28;20538;-54
2022/11/11 00:38:45;;;;;;;57.85;10.20;;;2.50;99.90;;;;;;5072987;28;20036;-53
2022/11/11 00:41:12;;;;;;;77.88;10.80;;;2.50;99.90;;;;;;5073182;28;20020;-52
2022/11/11 00:43:38;;;;;;;73.00;9.43;;;2.40;99.90;;;;;;5071724;28;20024;-51
2022/11/11 00:51:32;;;;;;;27.67;8.88;;;2.50;99.90;;;;;;5072950;28;20490;-51
2022/11/11 00:53:58;;;;;;;30.48;9.30;;;2.50;99.90;;;;;;5072830;28;20068;-50
2022/11/11 00:56:24;;;;;;;85.60;11.43;;;2.50;99.90;;;;;;5072849;28;20037;-52
2022/11/11 00:58:49;;;;;;;72.88;9.07;;;2.50;99.90;;;;;;5072863;28;20100;-50
2022/11/11 01:01:15;;;;;;;99.63;11.55;;;2.40;99.90;;;;;;5072620;28;20534;-52
2022/11/11 01:03:41;;;;;;;90.40;10.80;;;2.50;99.90;;;;;;5088401;28;20074;-51
2022/11/11 01:06:10;;;;;;;56.65;9.23;;;2.50;99.90;;;;;;5072641;28;20111;-51
2022/11/11 01:08:35;;;;;;;68.35;9.68;;;2.50;99.90;;;;;;5072865;28;20020;-53
2022/11/11 01:11:01;;;;;;;88.75;10.85;;;2.50;99.90;;;;;;5072612;28;20383;-54
2022/11/11 01:13:29;;;;;;;54.58;9.32;;;2.40;99.90;;;;;;5088374;28;20028;-54
2022/11/11 01:16:06;;;;;;;101.03;10.48;;;2.40;99.90;;;;;;5072640;28;20056;-53
2022/11/11 01:18:32;;;;;;;79.60;11.75;;;2.40;99.90;;;;;;5072277;28;20044;-52
2022/11/11 01:20:59;;;;;;;98.80;9.88;;;2.30;99.90;;;;;;5072264;28;20411;-50
2022/11/11 01:23:25;;;;;;;80.90;9.35;;;2.30;99.90;;;;;;5087957;28;20389;-54
2022/11/11 01:25:51;;;;;;;91.22;9.25;;;2.30;99.90;;;;;;5072385;28;20024;-50
2022/11/11 01:28:17;;;;;;;111.03;10.57;;;2.30;99.90;;;;;;5072270;28;20032;-54
2022/11/11 01:30:43;;;;;;;62.63;10.95;;;2.30;99.90;;;;;;5072249;28;20114;-53
2022/11/11 01:33:10;;;;;;;66.15;9.68;;;2.20;99.90;;;;;;5072208;28;20447;-50
2022/11/11 01:35:40;;;;;;;81.95;10.38;;;2.20;99.90;;;;;;5072445;28;20051;-52
2022/11/11 01:38:07;;;;;;;52.47;9.75;;;2.10;99.90;;;;;;5072140;28;20036;-51
2022/11/11 01:40:43;;;;;;;58.70;9.32;;;2.10;99.90;;;;;;5071776;28;20029;-54
2022/11/11 01:43:12;;;;;;;63.00;9.35;;;2.10;99.90;;;;;;5072124;28;20490;-52
2022/11/11 01:45:58;;;;;;;59.72;9.02;;;2.10;99.90;;;;;;5071959;28;20026;-51
2022/11/11 01:51:38;;;;;;;34.70;8.88;;;2.10;99.90;;;;;;5072028;28;20115;-53
2022/11/11 01:54:16;;;;;;;57.28;8.98;;;2.10;99.90;;;;;;5071826;28;20016;-56
2022/11/11 01:56:45;;;;;;;28.85;9.68;;;2.00;99.90;;;;;;5071630;28;20109;-51
2022/11/11 01:59:16;;;;;;;30.17;8.32;;;2.00;99.90;;;;;;5071785;28;20078;-50
2022/11/11 02:01:43;;;;;;;42.13;8.85;;;2.10;99.90;;;;;;5071743;28;20024;-52
2022/11/11 02:06:58;;;;;;;26.80;10.60;;;2.10;99.90;;;;;;5072087;28;20108;-52
2022/11/11 02:09:25;;;;;;;32.65;8.55;;;2.10;99.90;;;;;;5071536;28;20074;-53
2022/11/11 02:14:44;;;;;;;76.03;8.27;;;2.10;99.90;;;;;;5071550;28;20035;-53
2022/11/11 02:17:15;;;;;;;28.63;8.38;;;2.00;99.90;;;;;;5071264;28;20023;-51
2022/11/11 02:19:52;;;;;;;38.92;8.00;;;2.10;99.90;;;;;;5071471;28;20098;-54
2022/11/11 02:22:47;;;;;;;57.33;7.35;;;2.00;99.90;;;;;;5071585;28;20046;-55
2022/11/11 02:25:17;;;;;;;97.47;9.02;;;2.00;99.90;;;;;;5071612;28;20013;-52
2022/11/11 02:27:48;;;;;;;64.47;8.20;;;2.00;99.90;;;;;;5071509;28;20659;-50
2022/11/11 02:30:15;;;;;;;50.05;8.43;;;2.00;99.90;;;;;;5071512;28;20693;-53
2022/11/11 02:32:46;;;;;;;40.47;8.10;;;2.00;99.90;;;;;;5071355;28;20105;-51
2022/11/11 02:35:16;;;;;;;38.50;7.50;;;2.00;99.90;;;;;;5071588;28;20675;-54
2022/11/11 02:37:45;;;;;;;21.83;6.90;;;2.00;99.90;;;;;;5071265;28;20032;-51
2022/11/11 02:40:18;;;;;;;22.55;6.40;;;2.00;99.90;;;;;;5087000;28;20055;-51
2022/11/11 02:42:43;;;;;;;64.05;7.93;;;1.90;99.90;;;;;;5070031;28;20036;-49
2022/11/11 02:45:10;;;;;;;51.35;7.68;;;1.90;99.90;;;;;;5071372;28;20074;-53
2022/11/11 02:47:35;;;;;;;52.33;7.78;;;1.90;99.90;;;;;;5086740;28;20052;-53
2022/11/11 02:50:01;;;;;;;69.05;7.75;;;1.90;99.90;;;;;;5071310;28;20048;-55
2022/11/11 02:52:27;;;;;;;77.72;8.27;;;1.80;99.90;;;;;;5071087;28;20024;-53
2022/11/11 02:54:53;;;;;;;43.53;8.00;;;1.80;99.90;;;;;;5071301;28;20046;-55
2022/11/11 02:57:18;;;;;;;46.08;7.57;;;1.80;99.90;;;;;;5071311;28;20402;-56
2022/11/11 02:59:44;;;;;;;38.92;8.68;;;1.80;99.90;;;;;;5071107;28;20115;-54
2022/11/11 03:02:10;;;;;;;58.30;8.13;;;1.80;99.90;;;;;;5071109;28;20021;-52
2022/11/11 03:04:37;;;;;;;56.45;7.40;;;1.70;99.90;;;;;;5070998;28;20029;-55
2022/11/11 03:07:03;;;;;;;27.13;7.15;;;1.70;99.90;;;;;;5071191;28;20019;-51
2022/11/11 03:09:29;;;;;;;12.05;6.53;;;1.70;99.90;;;;;;5070952;28;20032;-51
2022/11/11 03:11:55;;;;;;;7.57;6.57;;;1.60;99.90;;;;;;5071119;28;20032;-51
2022/11/11 03:14:21;;;;;;;7.20;6.47;;;1.60;99.90;;;;;;5071092;28;20029;-53
2022/11/11 03:19:31;;;;;;;7.72;6.25;;;1.60;99.90;;;;;;5070898;28;20079;-50
2022/11/11 03:21:58;;;;;;;7.00;6.25;;;1.60;99.90;;;;;;5070926;28;20048;-51
2022/11/11 03:25:36;;;;;;;6.68;6.05;;;1.60;99.90;;;;;;5071180;28;20029;-52
2022/11/11 03:27:10;;;;;;;7.13;6.43;;;1.60;99.90;;;;;;5071154;28;20029;-51
2022/11/11 03:29:35;;;;;;;11.20;6.85;;;1.50;99.90;;;;;;5072864;28;20031;-50
2022/11/11 03:32:01;;;;;;;8.50;6.07;;;1.50;99.90;;;;;;5074642;28;20521;-52
2022/11/11 03:34:27;;;;;;;6.47;5.95;;;1.50;99.90;;;;;;5074418;28;20033;-53
2022/11/11 03:39:36;;;;;;;7.18;6.00;;;1.40;99.90;;;;;;5074161;28;20446;-51
2022/11/11 03:42:02;;;;;;;5.80;5.20;;;1.40;99.90;;;;;;5074353;28;20033;-55
2022/11/11 03:44:28;;;;;;;6.97;6.30;;;1.40;99.90;;;;;;5074335;28;20028;-52
2022/11/11 03:46:54;;;;;;;5.95;5.40;;;1.40;99.90;;;;;;5074281;28;20074;-52
2022/11/11 03:49:20;;;;;;;6.45;5.85;;;1.40;99.90;;;;;;5089879;28;20064;-50
2022/11/11 03:51:45;;;;;;;6.38;5.80;;;1.30;99.90;;;;;;5074049;28;20047;-54
2022/11/11 03:54:12;;;;;;;5.80;5.30;;;1.30;99.90;;;;;;5074194;28;20511;-51
2022/11/11 03:56:37;;;;;;;5.95;5.45;;;1.30;99.90;;;;;;5073984;28;20025;-53
2022/11/11 03:59:03;;;;;;;10.90;6.00;;;1.30;99.90;;;;;;5074179;28;20513;-53
2022/11/11 04:18:07;;;;;;;8.68;7.80;;;1.30;99.90;;;;;;5073674;28;20085;-52
2022/11/11 04:23:17;;;;;;;10.10;8.10;;;1.30;99.90;;;;;;5073816;28;20043;-51
2022/11/11 04:25:48;;;;;;;14.48;7.72;;;1.30;99.90;;;;;;5073572;28;20033;-52
2022/11/11 04:30:58;;;;;;;19.55;8.93;;;1.30;99.90;;;;;;5073876;28;20393;-53
2022/11/11 04:33:24;;;;;;;17.30;7.53;;;1.30;99.90;;;;;;5073243;28;20033;-51
2022/11/11 04:35:50;;;;;;;9.98;7.80;;;1.30;99.90;;;;;;5073294;28;20082;-55
2022/11/11 04:41:20;;;;;;;17.25;8.38;;;1.40;99.90;;;;;;5050237;28;20116;-51
2022/11/11 04:46:29;;;;;;;;;;;1.50;99.90;;;;;;5065796;28;20043;-52
2022/11/11 04:48:55;;;;;;;23.27;10.05;;;1.50;99.90;;;;;;5093383;28;19916;-54
2022/11/11 04:52:24;;;;;;;19.17;9.35;;;1.50;99.90;;;;;;5093242;28;20024;-51
2022/11/11 04:54:06;;;;;;;51.78;9.52;;;1.60;99.90;;;;;;5093234;28;20036;-54
2022/11/11 04:56:47;;;;;;;39.75;10.50;;;1.60;99.90;;;;;;5092862;28;20028;-50
2022/11/11 04:59:15;;;;;;;53.80;10.07;;;1.50;99.90;;;;;;5093109;28;20031;-50
2022/11/11 05:04:26;;;;;;;23.77;9.02;;;1.50;99.90;;;;;;5092797;28;20051;-51
2022/11/11 05:09:36;;;;;;;179.43;14.65;;;1.50;99.90;;;;;;5092896;28;20154;-52
2022/11/11 05:12:02;;;;;;;109.43;11.75;;;1.40;99.90;;;;;;5092927;28;20028;-50
2022/11/11 05:22:42;;;;;;;72.97;10.45;;;1.40;99.90;;;;;;5092498;28;20485;-52
2022/11/11 05:25:25;;;;;;;81.82;9.90;;;1.30;99.90;;;;;;5092700;28;20441;-52
2022/11/11 05:27:58;;;;;;;34.03;7.82;;;1.30;99.90;;;;;;5092578;28;20017;-53
2022/11/11 05:30:24;;;;;;;29.88;8.77;;;1.30;99.90;;;;;;5092596;28;20028;-52
2022/11/11 05:32:51;;;;;;;33.53;8.27;;;1.20;99.90;;;;;;5092434;28;20024;-51
2022/11/11 05:35:17;;;;;;;35.60;9.43;;;1.20;99.90;;;;;;5092508;28;20030;-51
2022/11/11 05:37:43;;;;;;;9.88;8.65;;;1.20;99.90;;;;;;5092459;28;20513;-54
2022/11/11 05:40:10;;;;;;;13.88;7.88;;;1.20;99.90;;;;;;5092381;28;20036;-55
2022/11/11 05:42:41;;;;;;;9.00;8.10;;;1.20;99.90;;;;;;5092123;28;20027;-52
2022/11/11 05:45:07;;;;;;;11.32;7.70;;;1.20;99.90;;;;;;5092366;28;20035;-52
2022/11/11 05:47:33;;;;;;;9.43;6.85;;;1.20;99.90;;;;;;5092017;28;20124;-51
2022/11/11 05:49:58;;;;;;;11.30;7.70;;;1.30;99.90;;;;;;5092221;28;20565;-53
2022/11/11 05:52:24;;;;;;;7.57;6.78;;;1.30;99.90;;;;;;5091018;28;20016;-52
2022/11/11 05:54:49;;;;;;;8.00;7.10;;;1.30;99.90;;;;;;5091529;28;20020;-51
2022/11/11 05:57:15;;;;;;;10.63;7.70;;;1.30;99.90;;;;;;5092018;28;20077;-52
2022/11/11 05:59:41;;;;;;;14.90;7.05;;;1.20;99.90;;;;;;5091845;28;20028;-49
2022/11/11 06:02:07;;;;;;;11.88;6.72;;;1.20;99.90;;;;;;5091968;28;20558;-50
2022/11/11 06:04:34;;;;;;;9.10;6.60;;;1.30;99.90;;;;;;5091883;28;20158;-52
2022/11/11 06:06:59;;;;;;;7.28;6.28;;;1.30;99.90;;;;;;5091892;28;20020;-52
2022/11/11 06:09:25;;;;;;;6.72;6.03;;;1.30;99.90;;;;;;5091767;28;20130;-55
2022/11/11 06:11:51;;;;;;;6.10;5.50;;;1.30;99.90;;;;;;5091956;28;20459;-53
2022/11/11 06:14:17;;;;;;;7.50;5.32;;;1.40;99.90;;;;;;5091109;28;20024;-54
2022/11/11 06:16:42;;;;;;;6.22;5.35;;;1.40;99.90;;;;;;5091607;28;20024;-52
2022/11/11 06:19:08;;;;;;;8.18;6.03;;;1.40;99.90;;;;;;5091597;28;20040;-51
2022/11/11 06:21:55;;;;;;;6.75;6.15;;;1.40;99.90;;;;;;5091534;28;20105;-54
2022/11/11 06:24:20;;;;;;;6.05;5.50;;;1.50;99.90;;;;;;5091459;28;20063;-53
2022/11/11 06:26:46;;;;;;;10.13;5.80;;;1.60;99.90;;;;;;5091643;28;20536;-51
2022/11/11 06:29:12;;;;;;;11.82;7.70;;;1.60;99.90;;;;;;5091671;28;20056;-56
2022/11/11 06:31:37;;;;;;;6.07;5.10;;;1.60;99.90;;;;;;5091481;28;20063;-52
2022/11/11 06:34:03;;;;;;;8.15;6.18;;;1.70;99.90;;;;;;5091517;28;20032;-51
2022/11/11 06:36:29;;;;;;;6.82;5.70;;;1.80;99.90;;;;;;5089991;28;20504;-52
2022/11/11 06:38:54;;;;;;;6.13;5.53;;;1.90;99.90;;;;;;5091665;28;20028;-54
2022/11/11 06:41:23;;;;;;;14.13;9.07;;;2.00;99.90;;;;;;5091520;28;20463;-54
2022/11/11 06:43:48;;;;;;;16.80;8.40;;;2.10;99.90;;;;;;5091207;28;20024;-53
2022/11/11 06:46:22;;;;;;;17.90;11.80;;;2.10;99.90;;;;;;5091654;28;20512;-50
2022/11/11 06:48:48;;;;;;;15.35;7.93;;;2.20;99.90;;;;;;5091421;28;20020;-55
2022/11/11 06:51:14;;;;;;;23.63;9.50;;;2.30;99.90;;;;;;5091669;28;20031;-53
2022/11/11 06:53:41;;;;;;;30.40;18.42;;;2.30;99.90;;;;;;5090087;28;20025;-56
2022/11/11 06:56:07;;;;;;;22.35;16.42;;;2.50;99.90;;;;;;5091473;28;20032;-53
2022/11/11 06:58:32;;;;;;;12.73;10.77;;;2.50;99.90;;;;;;5089948;28;20024;-55
2022/11/11 07:00:58;;;;;;;16.75;10.30;;;2.70;99.90;;;;;;5091261;28;20092;-52
2022/11/11 07:03:24;;;;;;;19.83;12.95;;;2.80;99.90;;;;;;5092027;28;20024;-53
2022/11/11 07:05:50;;;;;;;15.85;8.98;;;2.70;99.90;;;;;;5095174;28;20020;-55
2022/11/11 07:08:17;;;;;;;10.93;7.75;;;2.70;99.90;;;;;;5095180;28;20073;-52
2022/11/11 07:10:45;;;;;;;10.23;7.18;;;2.90;99.90;;;;;;5093755;28;20029;-53
2022/11/11 07:13:12;;;;;;;12.13;8.15;;;3.00;99.90;;;;;;5095224;28;20024;-55
2022/11/11 07:15:44;;;;;;;9.90;8.90;;;3.10;99.90;;;;;;5095003;28;20387;-54
2022/11/11 07:18:10;;;;;;;9.68;8.23;;;3.20;99.90;;;;;;5094755;28;20410;-52
2022/11/11 07:20:36;;;;;;;9.30;8.40;;;3.30;99.90;;;;;;5094805;28;20081;-53
2022/11/11 07:23:03;;;;;;;10.70;8.23;;;3.30;99.90;;;;;;5093602;28;20351;-56
2022/11/11 07:25:28;;;;;;;10.27;7.63;;;3.30;99.90;;;;;;5094793;28;20020;-55
2022/11/11 07:27:54;;;;;;;8.68;6.28;;;3.50;99.90;;;;;;5094868;28;20360;-55
2022/11/11 07:30:20;;;;;;;11.70;5.72;;;3.60;99.90;;;;;;5094800;28;20028;-52
2022/11/11 07:32:47;;;;;;;9.65;5.63;;;3.70;99.90;;;;;;5094378;28;20029;-54
2022/11/11 07:35:14;;;;;;;5.55;5.07;;;3.80;99.90;;;;;;5094846;28;20426;-53
2022/11/11 07:37:40;;;;;;;6.60;6.00;;;3.90;99.90;;;;;;5094582;28;20028;-51
2022/11/11 07:40:07;;;;;;;5.88;5.20;;;3.80;99.90;;;;;;5094570;28;20509;-54
2022/11/11 07:42:40;;;;;;;8.02;6.50;;;3.90;99.90;;;;;;5094385;28;20024;-53
2022/11/11 07:45:08;;;;;;;9.02;6.05;;;4.00;99.90;;;;;;5094598;28;20024;-52
2022/11/11 07:47:34;;;;;;;13.20;7.55;;;4.00;99.90;;;;;;5094306;28;20043;-53
2022/11/11 07:50:01;;;;;;;6.30;5.70;;;4.10;99.90;;;;;;5094562;28;20082;-54
2022/11/11 07:52:26;;;;;;;5.00;4.50;;;4.20;99.90;;;;;;5094230;28;20016;-56
2022/11/11 07:54:52;;;;;;;5.75;5.25;;;4.30;99.90;;;;;;5094372;28;20024;-54
2022/11/11 07:57:18;;;;;;;8.80;7.30;;;4.40;99.90;;;;;;5093016;28;20027;-54
2022/11/11 07:59:43;;;;;;;6.22;5.60;;;4.50;99.90;;;;;;5094287;28;20035;-56
2022/11/11 08:02:13;;;;;;;10.13;6.50;;;4.70;99.90;;;;;;5094151;28;20822;-57
2022/11/11 08:04:38;;;;;;;8.05;6.45;;;4.80;99.90;;;;;;5094250;28;20024;-52
2022/11/11 08:07:04;;;;;;;6.43;5.78;;;5.10;99.90;;;;;;5094178;28;20112;-54
2022/11/11 08:09:30;;;;;;;7.45;5.30;;;5.20;99.90;;;;;;5093791;28;20027;-55
2022/11/11 08:14:40;;;;;;;5.65;4.97;;;5.30;99.90;;;;;;5093296;28;20490;-53
2022/11/11 08:17:06;;;;;;;9.60;5.57;;;5.50;99.90;;;;;;5093542;28;20036;-51
2022/11/11 08:19:31;;;;;;;5.57;4.85;;;5.50;99.90;;;;;;5093510;28;20044;-56
2022/11/11 08:21:57;;;;;;;6.40;4.80;;;5.70;99.90;;;;;;5094027;28;20039;-56
2022/11/11 08:24:23;;;;;;;6.82;4.45;;;5.90;99.90;;;;;;5093757;28;20455;-51
2022/11/11 08:26:49;;;;;;;12.65;9.75;;;6.10;99.90;;;;;;5093582;28;20428;-52
2022/11/11 08:29:15;;;;;;;17.48;8.15;;;6.30;99.90;;;;;;5093670;28;20127;-53
2022/11/11 08:31:40;;;;;;;25.70;13.75;;;6.50;99.90;;;;;;5092344;28;20028;-54
2022/11/11 08:34:06;;;;;;;10.07;6.15;;;6.50;99.90;;;;;;5093696;28;20063;-56
2022/11/11 08:36:32;;;;;;;10.48;6.13;;;6.50;99.90;;;;;;5092294;28;20474;-55
2022/11/11 08:38:58;;;;;;;12.85;6.47;;;6.70;99.90;;;;;;5093502;28;20036;-53
2022/11/11 08:41:24;;;;;;;7.15;5.78;;;6.80;99.90;;;;;;5093337;28;20024;-52
2022/11/11 08:43:54;;;;;;;4.53;4.10;;;7.10;99.90;;;;;;5093438;28;20069;-52
2022/11/11 08:46:21;;;;;;;5.75;4.75;;;7.20;99.90;;;;;;5092171;28;20054;-55
2022/11/11 08:48:47;;;;;;;6.10;4.32;;;7.30;99.90;;;;;;5093285;28;20416;-53
2022/11/11 08:51:13;;;;;;;4.65;4.25;;;7.40;99.90;;;;;;5093680;28;20107;-52
2022/11/11 08:53:57;;;;;;;5.38;4.90;;;7.50;99.90;;;;;;5093105;28;20027;-51
2022/11/11 08:56:22;;;;;;;;;;;7.60;99.90;;;;;;5093659;28;20047;-51
2022/11/11 08:58:48;;;;;;;6.28;4.43;;;7.70;99.90;;;;;;5092928;28;20393;-55
2022/11/11 09:01:14;;;;;;;8.25;6.25;;;7.80;99.90;;;;;;5092786;28;20140;-54
2022/11/11 09:03:42;;;;;;;9.93;5.15;;;7.90;99.90;;;;;;5092776;28;20085;-54
2022/11/11 09:06:10;;;;;;;4.60;4.20;;;8.00;99.90;;;;;;5093134;28;20106;-51
2022/11/11 09:08:36;;;;;;;4.47;4.07;;;8.10;99.90;;;;;;5074212;28;20031;-51
2022/11/11 09:11:02;;;;;;;4.72;3.88;;;8.00;99.90;;;;;;5091717;28;20024;-50
2022/11/11 09:13:27;;;;;;;5.95;4.38;;;8.20;99.90;;;;;;5091345;28;20172;-51
2022/11/11 09:15:54;;;;;;;6.13;4.70;;;8.40;99.90;;;;;;5091597;28;20028;-52
2022/11/11 09:18:19;;;;;;;6.18;4.88;;;8.80;99.90;;;;;;5091422;28;20040;-51
2022/11/11 09:20:45;;;;;;;5.75;4.95;;;9.00;99.90;;;;;;5091316;28;20165;-51
2022/11/11 09:23:10;;;;;;;8.75;6.15;;;9.00;99.90;;;;;;5091325;28;20356;-51
2022/11/11 09:25:36;;;;;;;5.68;5.07;;;9.00;99.90;;;;;;5091008;28;20020;-52
2022/11/11 09:28:02;;;;;;;6.55;5.70;;;9.40;99.90;;;;;;5090845;28;20020;-50
2022/11/11 09:30:28;;;;;;;8.25;7.45;;;9.90;99.90;;;;;;5092244;28;20040;-52
2022/11/11 09:32:54;;;;;;;5.07;4.53;;;10.20;99.90;;;;;;5092415;28;20024;-51
2022/11/11 09:35:20;;;;;;;3.17;2.88;;;11.20;99.90;;;;;;5091040;28;20034;-53
2022/11/11 09:37:54;;;;;;;4.57;2.80;;;12.40;99.90;;;;;;5092135;28;20081;-57
2022/11/11 09:40:21;;;;;;;;;;;14.10;99.90;;;;;;5092706;28;20086;-52
2022/11/11 09:42:59;;;;;;;4.13;2.58;;;14.40;99.90;;;;;;5092140;28;19999;-57
2022/11/11 09:45:40;;;;;;;4.60;2.58;;;14.50;99.90;;;;;;5091488;28;20035;-55
2022/11/11 09:48:37;;;;;;;2.78;2.35;;;14.80;99.70;;;;;;5092054;28;20068;-52
2022/11/11 09:51:08;;;;;;;3.25;2.00;;;15.60;99.00;;;;;;5092003;28;20020;-57
2022/11/11 09:53:39;;;;;;;2.80;2.13;;;15.80;96.10;;;;;;5091798;28;20442;-55
2022/11/11 09:56:18;;;;;;;4.22;3.20;;;16.40;95.00;;;;;;5091984;28;20024;-56
2022/11/11 09:59:13;;;;;;;7.95;3.53;;;16.70;95.30;;;;;;5090381;28;20028;-50
2022/11/11 10:01:44;;;;;;;5.50;2.28;;;16.70;95.30;;;;;;5076253;28;20058;-56
2022/11/11 10:04:25;;;;;;;18.63;8.55;;;17.00;94.40;;;;;;5092002;28;20030;-56
2022/11/11 10:07:04;;;;;;;74.30;63.22;;;16.30;92.90;;;;;;5091909;28;20479;-53
2022/11/11 10:09:54;;;;;;;77.75;63.15;;;16.50;93.10;;;;;;5091405;28;20024;-58
2022/11/11 10:12:22;;;;;;;34.10;27.35;;;17.10;93.00;;;;;;5091837;28;20035;-55
2022/11/11 10:14:50;;;;;;;27.15;19.08;;;16.70;93.30;;;;;;5091796;28;20024;-54
2022/11/11 10:17:33;;;;;;;42.53;29.75;;;16.20;94.00;;;;;;5090494;28;20028;-55
2022/11/11 10:20:23;;;;;;;27.73;20.30;;;15.10;96.10;;;;;;5091496;28;20051;-54
2022/11/11 10:22:54;;;;;;;39.15;28.38;;;14.40;96.80;;;;;;5091490;28;20012;-53
2022/11/11 10:25:29;;;;;;;43.05;32.60;;;13.80;97.60;;;;;;5091662;28;20020;-56
2022/11/11 10:27:58;;;;;;;43.65;38.17;;;13.80;96.80;;;;;;5091364;28;20030;-53
2022/11/11 10:30:27;;;;;;;10.93;9.55;;;13.70;96.90;;;;;;5091461;28;20020;-55
2022/11/11 10:33:02;;;;;;;13.63;12.23;;;14.10;96.30;;;;;;5090181;28;21445;-54
2022/11/11 10:35:31;;;;;;;8.30;5.70;;;14.40;95.40;;;;;;5091409;28;20012;-52
2022/11/11 10:38:05;;;;;;;14.70;10.30;;;14.90;95.20;;;;;;5092432;28;20032;-53
2022/11/11 10:40:49;;;;;;;15.48;12.10;;;15.30;93.60;;;;;;5095570;28;20099;-52
2022/11/11 10:43:26;;;;;;;35.33;16.40;;;15.90;92.70;;;;;;5095240;28;20020;-54
2022/11/11 10:45:58;;;;;;;25.88;13.35;;;16.40;92.50;;;;;;5094401;28;20115;-55
2022/11/11 10:48:45;;;;;;;13.50;10.23;;;16.60;91.80;;;;;;5095732;28;20049;-54
2022/11/11 10:51:12;;;;;;;6.03;5.32;;;16.40;91.10;;;;;;5095036;28;20428;-54
2022/11/11 10:53:42;;;;;;;45.53;34.25;;;17.00;90.70;;;;;;5093538;28;20086;-53
2022/11/11 10:56:32;;;;;;;180.55;117.15;;;17.60;87.60;;;;;;5095176;28;20032;-54
2022/11/11 10:59:18;;;;;;;89.47;57.58;;;17.20;86.70;;;;;;5095377;28;20032;-55
2022/11/11 11:01:47;;;;;;;20.63;15.13;;;17.70;85.10;;;;;;5094879;28;20151;-55
2022/11/11 11:04:21;;;;;;;15.48;11.23;;;18.40;81.50;;;;;;5095406;28;20077;-54
2022/11/11 11:06:49;;;;;;;49.13;35.38;;;18.20;80.70;;;;;;5095014;28;20115;-56
2022/11/11 11:09:18;;;;;;;48.40;34.72;;;18.30;79.70;;;;;;5093869;28;20028;-55
2022/11/11 11:11:48;;;;;;;135.05;95.75;;;18.80;80.20;;;;;;5095170;28;20020;-54
2022/11/11 11:14:44;;;;;;;37.80;27.85;;;18.10;77.60;;;;;;5095455;28;20378;-53
2022/11/11 11:17:18;;;;;;;36.97;25.98;;;17.20;82.20;;;;;;5090531;28;20040;-52
2022/11/11 11:19:47;;;;;;;48.92;32.63;;;17.70;82.40;;;;;;5093392;28;20086;-56
2022/11/11 11:22:12;;;;;;;120.50;84.82;;;17.70;80.90;;;;;;5095032;28;20582;-53
2022/11/11 11:24:38;;;;;;;41.25;29.85;;;18.20;80.10;;;;;;5094819;28;20107;-56
2022/11/11 11:27:06;;;;;;;37.60;26.17;;;19.00;80.60;;;;;;5094860;28;20359;-50
2022/11/11 11:29:32;;;;;;;192.73;136.63;;;19.80;77.30;;;;;;5094841;28;20149;-52
2022/11/11 11:32:14;;;;;;;19.48;13.93;;;20.20;76.30;;;;;;5093682;28;20053;-55
2022/11/11 11:34:48;;;;;;;38.55;26.27;;;20.20;74.50;;;;;;5094657;28;20597;-55
2022/11/11 11:37:14;;;;;;;62.47;46.72;;;20.40;73.40;;;;;;5094847;28;20016;-54
2022/11/11 11:39:40;;;;;;;8.85;5.20;;;20.60;72.20;;;;;;5094444;28;20031;-54
2022/11/11 11:42:07;;;;;;;20.17;12.70;;;20.60;72.10;;;;;;5093402;28;20038;-54
2022/11/11 11:44:35;;;;;;;10.43;6.30;;;19.70;74.20;;;;;;5094368;28;20107;-53
2022/11/11 11:47:09;;;;;;;12.45;8.38;;;19.80;77.10;;;;;;5094462;28;20031;-54
2022/11/11 11:50:05;;;;;;;10.82;3.90;;;18.90;77.00;;;;;;5093281;28;20028;-54
2022/11/11 11:52:57;;;;;;;8.13;4.85;;;19.40;76.90;;;;;;5094832;28;20030;-52
2022/11/11 11:55:30;;;;;;;8.93;7.90;;;18.40;78.40;;;;;;5094421;28;20443;-53
2022/11/11 11:58:09;;;;;;;19.10;4.87;;;18.80;77.70;;;;;;5094410;28;20024;-53
2022/11/11 12:01:03;;;;;;;7.07;4.45;;;18.50;77.30;;;;;;5094022;28;20285;-52
2022/11/11 12:03:45;;;;;;;5.47;2.90;;;18.90;77.50;;;;;;5094143;28;20024;-52
2022/11/11 12:06:28;;;;;;;7.07;2.75;;;19.70;74.00;;;;;;5094306;28;20016;-54
2022/11/11 12:09:18;;;;;;;2.75;2.40;;;19.90;73.70;;;;;;5094221;28;20016;-54
2022/11/11 12:12:00;;;;;;;7.82;2.97;;;20.00;71.80;;;;;;5094024;28;20052;-53
2022/11/11 12:14:39;;;;;;;3.90;2.78;;;19.90;73.10;;;;;;5094026;28;20047;-52
2022/11/11 12:17:25;;;;;;;2.83;2.55;;;19.60;72.30;;;;;;5094008;28;20032;-54
2022/11/11 12:20:02;;;;;;;5.05;3.08;;;18.80;75.40;;;;;;5093791;28;20073;-56
2022/11/11 12:22:40;;;;;;;3.83;2.88;;;19.40;75.80;;;;;;5093734;28;20028;-51
2022/11/11 12:25:26;;;;;;;6.55;2.50;;;19.80;74.20;;;;;;5092519;28;20024;-53
2022/11/11 12:27:52;;;;;;;7.00;3.35;;;20.40;71.20;;;;;;5086172;28;20110;-55
2022/11/11 12:30:20;;;;;;;14.02;3.97;;;21.30;71.20;;;;;;5093790;28;20538;-54
2022/11/11 12:33:05;;;;;;;4.47;2.88;;;20.80;70.10;;;;;;5093404;28;20034;-55
2022/11/11 12:35:30;;;;;;;6.90;5.90;;;21.20;70.10;;;;;;5093554;28;20020;-55
2022/11/11 12:38:11;;;;;;;15.70;13.23;;;20.70;69.50;;;;;;5093377;28;20566;-54
2022/11/11 12:40:56;;;;;;;4.88;2.50;;;20.90;69.50;;;;;;5092529;28;20028;-53
2022/11/11 12:43:50;;;;;;;4.28;2.05;;;21.10;69.20;;;;;;5092331;28;20031;-52
2022/11/11 12:46:24;;;;;;;2.22;1.63;;;21.90;67.30;;;;;;5092209;28;20024;-53
2022/11/11 12:49:06;;;;;;;10.63;2.38;;;22.50;63.10;;;;;;5090831;28;20107;-55
2022/11/11 12:51:49;;;;;;;12.20;5.88;;;23.60;61.30;;;;;;5091779;28;20051;-55
2022/11/11 12:54:44;;;;;;;6.95;2.00;;;24.10;60.10;;;;;;5091945;28;20024;-53
2022/11/11 12:57:10;;;;;;;3.72;1.40;;;24.00;58.50;;;;;;5091824;28;20475;-54
2022/11/11 12:59:55;;;;;;;11.13;1.55;;;23.90;56.40;;;;;;5091577;28;20035;-54
2022/11/11 13:02:55;;;;;;;1.58;1.25;;;23.90;56.30;;;;;;5091442;28;20073;-55
2022/11/11 13:05:39;;;;;;;9.07;2.17;;;23.80;55.30;;;;;;5091691;28;20105;-55
2022/11/11 13:08:14;;;;;;;6.57;2.00;;;23.00;57.90;;;;;;5091644;28;20024;-53
2022/11/11 13:10:55;;;;;;;4.38;2.40;;;21.90;59.50;;;;;;5091437;28;20455;-51
2022/11/11 13:13:39;;;;;;;24.83;3.50;;;20.50;62.40;;;;;;5091594;28;20131;-55
2022/11/11 13:16:08;;;;;;;9.65;8.10;;;19.20;66.90;;;;;;5091728;28;20031;-53
2022/11/11 13:18:52;;;;;;;4.65;3.42;;;18.10;69.90;;;;;;5091101;28;20040;-54
2022/11/11 13:21:49;;;;;;;3.95;2.75;;;17.40;72.10;;;;;;5091421;28;20051;-53
2022/11/11 13:24:22;;;;;;;7.05;3.63;;;16.80;74.90;;;;;;5090714;28;20036;-54
2022/11/11 13:26:56;;;;;;;18.45;5.43;;;16.90;74.40;;;;;;5091235;28;20111;-52
2022/11/11 13:29:49;;;;;;;10.32;3.75;;;17.10;73.90;;;;;;5091366;28;20414;-56
2022/11/11 13:32:21;;;;;;;6.55;3.97;;;17.00;74.30;;;;;;5091086;28;20046;-56
2022/11/11 13:34:48;;;;;;;6.65;3.80;;;17.90;72.10;;;;;;5091037;28;20020;-56
2022/11/11 13:37:33;;;;;;;4.10;3.70;;;18.10;72.00;;;;;;5091068;28;20021;-57
2022/11/11 13:40:09;;;;;;;8.93;3.90;;;18.40;72.10;;;;;;5090922;28;20032;-56
2022/11/11 13:42:40;;;;;;;7.20;3.65;;;18.10;72.00;;;;;;5090878;28;20023;-52
2022/11/11 13:45:20;;;;;;;4.40;4.00;;;18.60;71.90;;;;;;5090687;28;20024;-57
2022/11/11 13:47:46;;;;;;;10.02;7.68;;;18.80;71.80;;;;;;5090656;28;20414;-56
2022/11/11 13:50:30;;;;;;;11.63;6.00;;;18.90;70.40;;;;;;5090806;28;20463;-56
2022/11/11 13:53:03;;;;;;;;;;;18.60;70.50;;;;;;5091449;28;20516;-57
2022/11/11 13:55:46;;;;;;;8.10;4.85;;;18.80;71.80;;;;;;5089277;28;19918;-56
2022/11/11 13:58:36;;;;;;;5.60;4.47;;;19.10;71.60;;;;;;5090146;28;20032;-58
2022/11/11 14:01:05;;;;;;;7.07;4.18;;;19.60;71.40;;;;;;5090264;28;20240;-55
2022/11/11 14:03:56;;;;;;;5.60;5.10;;;20.10;69.40;;;;;;5089151;28;20479;-54
2022/11/11 14:06:34;;;;;;;11.85;5.75;;;21.00;68.20;;;;;;5088896;28;20027;-55
2022/11/11 14:09:00;;;;;;;6.97;4.40;;;21.20;67.40;;;;;;5090075;28;20020;-56
2022/11/11 14:11:31;;;;;;;5.53;4.43;;;21.90;66.50;;;;;;5090047;28;20426;-53
2022/11/11 14:14:18;;;;;;;7.20;5.72;;;22.20;65.40;;;;;;5090604;28;20035;-55
2022/11/11 14:16:43;;;;;;;8.57;4.10;;;22.60;63.10;;;;;;5091273;28;20522;-53